sensor_id;sensor_type;location;lat;lon;timestamp;pressure;altitude;pressure_sealevel;temperature
15607;BMP180;7865;50.918;4.510;2023-02-08T00:04:40;103227.00;;;-2.80
15607;BMP180;7865;50.918;4.510;2023-02-08T00:09:41;103199.00;;;-2.90
15607;BMP180;7865;50.918;4.510;2023-02-08T00:14:43;103206.00;;;-3.00
15607;BMP180;7865;50.918;4.510;2023-02-08T00:19:45;103215.00;;;-3.00
15607;BMP180;7865;50.918;4.510;2023-02-08T00:24:48;103219.00;;;-3.10
15607;BMP180;7865;50.918;4.510;2023-02-08T00:29:50;103200.00;;;-3.10
15607;BMP180;7865;50.918;4.510;2023-02-08T00:34:52;103217.00;;;-3.20
15607;BMP180;7865;50.918;4.510;2023-02-08T00:39:54;103213.00;;;-3.20
15607;BMP180;7865;50.918;4.510;2023-02-08T00:44:57;103205.00;;;-3.20
15607;BMP180;7865;50.918;4.510;2023-02-08T00:50:03;103198.00;;;-3.20
15607;BMP180;7865;50.918;4.510;2023-02-08T00:55:06;103193.00;;;-3.30
15607;BMP180;7865;50.918;4.510;2023-02-08T01:00:11;103210.00;;;-3.40
15607;BMP180;7865;50.918;4.510;2023-02-08T01:05:13;103220.00;;;-3.40
15607;BMP180;7865;50.918;4.510;2023-02-08T01:10:14;103228.00;;;-3.40
15607;BMP180;7865;50.918;4.510;2023-02-08T01:15:16;103226.00;;;-3.50
15607;BMP180;7865;50.918;4.510;2023-02-08T01:20:18;103224.00;;;-3.50
15607;BMP180;7865;50.918;4.510;2023-02-08T01:25:20;103215.00;;;-3.50
15607;BMP180;7865;50.918;4.510;2023-02-08T01:30:22;103220.00;;;-3.60
15607;BMP180;7865;50.918;4.510;2023-02-08T01:35:24;103222.00;;;-3.60
15607;BMP180;7865;50.918;4.510;2023-02-08T01:40:26;103234.00;;;-3.60
15607;BMP180;7865;50.918;4.510;2023-02-08T01:45:30;103240.00;;;-3.70
15607;BMP180;7865;50.918;4.510;2023-02-08T01:50:42;103238.00;;;-3.70
15607;BMP180;7865;50.918;4.510;2023-02-08T01:55:50;103235.00;;;-3.80
15607;BMP180;7865;50.918;4.510;2023-02-08T02:00:53;103227.00;;;-3.80
15607;BMP180;7865;50.918;4.510;2023-02-08T02:06:17;103228.00;;;-3.80
15607;BMP180;7865;50.918;4.510;2023-02-08T02:11:22;103227.00;;;-3.80
15607;BMP180;7865;50.918;4.510;2023-02-08T02:16:27;103219.00;;;-3.90
15607;BMP180;7865;50.918;4.510;2023-02-08T02:22:13;103221.00;;;-3.90
15607;BMP180;7865;50.918;4.510;2023-02-08T02:27:26;103213.00;;;-3.90
15607;BMP180;7865;50.918;4.510;2023-02-08T02:37:59;103197.00;;;-3.90
15607;BMP180;7865;50.918;4.510;2023-02-08T02:43:14;103197.00;;;-3.90
15607;BMP180;7865;50.918;4.510;2023-02-08T02:48:43;103186.00;;;-3.90
15607;BMP180;7865;50.918;4.510;2023-02-08T02:58:55;103189.00;;;-4.00
15607;BMP180;7865;50.918;4.510;2023-02-08T03:03:59;103182.00;;;-3.70
15607;BMP180;7865;50.918;4.510;2023-02-08T03:19:44;103175.00;;;-3.90
15607;BMP180;7865;50.918;4.510;2023-02-08T03:25:02;103166.00;;;-4.00
15607;BMP180;7865;50.918;4.510;2023-02-08T03:30:13;103176.00;;;-4.20
15607;BMP180;7865;50.918;4.510;2023-02-08T03:35:23;103184.00;;;-4.20
15607;BMP180;7865;50.918;4.510;2023-02-08T03:40:27;103190.00;;;-4.20
15607;BMP180;7865;50.918;4.510;2023-02-08T03:45:35;103199.00;;;-4.20
15607;BMP180;7865;50.918;4.510;2023-02-08T03:50:40;103189.00;;;-4.10
15607;BMP180;7865;50.918;4.510;2023-02-08T03:55:50;103202.00;;;-4.00
15607;BMP180;7865;50.918;4.510;2023-02-08T04:00:58;103188.00;;;-4.00
15607;BMP180;7865;50.918;4.510;2023-02-08T04:06:02;103183.00;;;-4.10
15607;BMP180;7865;50.918;4.510;2023-02-08T04:11:04;103178.00;;;-4.10
15607;BMP180;7865;50.918;4.510;2023-02-08T04:16:09;103186.00;;;-4.20
15607;BMP180;7865;50.918;4.510;2023-02-08T04:21:12;103190.00;;;-4.20
15607;BMP180;7865;50.918;4.510;2023-02-08T04:26:14;103179.00;;;-4.30
15607;BMP180;7865;50.918;4.510;2023-02-08T04:31:16;103183.00;;;-4.30
15607;BMP180;7865;50.918;4.510;2023-02-08T04:36:18;103178.00;;;-4.30
15607;BMP180;7865;50.918;4.510;2023-02-08T04:41:22;103171.00;;;-4.40
15607;BMP180;7865;50.918;4.510;2023-02-08T04:46:24;103167.00;;;-4.40
15607;BMP180;7865;50.918;4.510;2023-02-08T04:51:26;103173.00;;;-4.40
15607;BMP180;7865;50.918;4.510;2023-02-08T04:56:28;103177.00;;;-4.40
15607;BMP180;7865;50.918;4.510;2023-02-08T05:01:30;103165.00;;;-4.40
15607;BMP180;7865;50.918;4.510;2023-02-08T05:06:32;103165.00;;;-4.40
15607;BMP180;7865;50.918;4.510;2023-02-08T05:11:35;103141.00;;;-4.50
15607;BMP180;7865;50.918;4.510;2023-02-08T05:16:37;103151.00;;;-4.50
15607;BMP180;7865;50.918;4.510;2023-02-08T05:21:39;103155.00;;;-4.60
15607;BMP180;7865;50.918;4.510;2023-02-08T05:26:41;103166.00;;;-4.60
15607;BMP180;7865;50.918;4.510;2023-02-08T05:31:43;103170.00;;;-4.60
15607;BMP180;7865;50.918;4.510;2023-02-08T05:36:44;103175.00;;;-4.60
15607;BMP180;7865;50.918;4.510;2023-02-08T05:41:46;103175.00;;;-4.60
15607;BMP180;7865;50.918;4.510;2023-02-08T05:46:48;103168.00;;;-4.60
15607;BMP180;7865;50.918;4.510;2023-02-08T05:51:50;103173.00;;;-4.60
15607;BMP180;7865;50.918;4.510;2023-02-08T05:56:52;103168.00;;;-4.70
15607;BMP180;7865;50.918;4.510;2023-02-08T06:01:54;103166.00;;;-4.70
15607;BMP180;7865;50.918;4.510;2023-02-08T06:06:56;103178.00;;;-4.70
15607;BMP180;7865;50.918;4.510;2023-02-08T06:11:58;103177.00;;;-4.70
15607;BMP180;7865;50.918;4.510;2023-02-08T06:17:00;103171.00;;;-4.70
15607;BMP180;7865;50.918;4.510;2023-02-08T06:22:02;103171.00;;;-4.80
15607;BMP180;7865;50.918;4.510;2023-02-08T06:27:03;103163.00;;;-4.80
15607;BMP180;7865;50.918;4.510;2023-02-08T06:32:05;103167.00;;;-4.80
15607;BMP180;7865;50.918;4.510;2023-02-08T06:37:07;103160.00;;;-4.80
15607;BMP180;7865;50.918;4.510;2023-02-08T06:42:10;103163.00;;;-4.80
15607;BMP180;7865;50.918;4.510;2023-02-08T06:47:12;103168.00;;;-4.80
15607;BMP180;7865;50.918;4.510;2023-02-08T06:52:14;103167.00;;;-4.70
15607;BMP180;7865;50.918;4.510;2023-02-08T06:57:17;103175.00;;;-4.70
15607;BMP180;7865;50.918;4.510;2023-02-08T07:02:20;103175.00;;;-4.60
15607;BMP180;7865;50.918;4.510;2023-02-08T07:07:22;103180.00;;;-4.60
15607;BMP180;7865;50.918;4.510;2023-02-08T07:12:24;103176.00;;;-4.50
15607;BMP180;7865;50.918;4.510;2023-02-08T07:17:26;103181.00;;;-4.40
15607;BMP180;7865;50.918;4.510;2023-02-08T07:22:28;103159.00;;;-4.30
15607;BMP180;7865;50.918;4.510;2023-02-08T07:27:29;103163.00;;;-4.20
15607;BMP180;7865;50.918;4.510;2023-02-08T07:32:31;103162.00;;;-4.00
15607;BMP180;7865;50.918;4.510;2023-02-08T07:37:35;103163.00;;;-3.90
15607;BMP180;7865;50.918;4.510;2023-02-08T07:42:37;103158.00;;;-3.70
15607;BMP180;7865;50.918;4.510;2023-02-08T07:47:51;103160.00;;;-3.60
15607;BMP180;7865;50.918;4.510;2023-02-08T07:52:52;103160.00;;;-3.50
15607;BMP180;7865;50.918;4.510;2023-02-08T07:57:55;103159.00;;;-3.40
15607;BMP180;7865;50.918;4.510;2023-02-08T08:02:57;103163.00;;;-3.20
15607;BMP180;7865;50.918;4.510;2023-02-08T08:07:59;103168.00;;;-3.10
15607;BMP180;7865;50.918;4.510;2023-02-08T08:13:01;103163.00;;;-2.90
15607;BMP180;7865;50.918;4.510;2023-02-08T08:18:03;103154.00;;;-2.70
15607;BMP180;7865;50.918;4.510;2023-02-08T08:23:06;103159.00;;;-2.50
15607;BMP180;7865;50.918;4.510;2023-02-08T08:28:08;103155.00;;;-2.30
15607;BMP180;7865;50.918;4.510;2023-02-08T08:33:11;103158.00;;;-2.00
15607;BMP180;7865;50.918;4.510;2023-02-08T08:38:16;103131.00;;;-1.70
15607;BMP180;7865;50.918;4.510;2023-02-08T08:43:17;103145.00;;;-1.20
15607;BMP180;7865;50.918;4.510;2023-02-08T08:48:20;103154.00;;;-0.70
15607;BMP180;7865;50.918;4.510;2023-02-08T08:53:21;103138.00;;;-0.20
15607;BMP180;7865;50.918;4.510;2023-02-08T08:58:23;103133.00;;;0.70
15607;BMP180;7865;50.918;4.510;2023-02-08T09:03:26;103135.00;;;1.50
15607;BMP180;7865;50.918;4.510;2023-02-08T09:08:28;103152.00;;;2.20
15607;BMP180;7865;50.918;4.510;2023-02-08T09:13:30;103153.00;;;2.90
15607;BMP180;7865;50.918;4.510;2023-02-08T09:18:32;103151.00;;;3.40
15607;BMP180;7865;50.918;4.510;2023-02-08T09:23:34;103160.00;;;3.80
15607;BMP180;7865;50.918;4.510;2023-02-08T09:28:37;103140.00;;;4.20
15607;BMP180;7865;50.918;4.510;2023-02-08T09:33:39;103133.00;;;4.50
15607;BMP180;7865;50.918;4.510;2023-02-08T09:38:42;103124.00;;;4.80
15607;BMP180;7865;50.918;4.510;2023-02-08T09:43:53;103130.00;;;5.10
15607;BMP180;7865;50.918;4.510;2023-02-08T09:49:01;103133.00;;;5.30
15607;BMP180;7865;50.918;4.510;2023-02-08T09:54:09;103142.00;;;5.50
15607;BMP180;7865;50.918;4.510;2023-02-08T09:59:20;103138.00;;;5.60
15607;BMP180;7865;50.918;4.510;2023-02-08T10:04:30;103140.00;;;5.80
15607;BMP180;7865;50.918;4.510;2023-02-08T10:09:36;103136.00;;;6.10
15607;BMP180;7865;50.918;4.510;2023-02-08T10:25:44;103138.00;;;6.70
15607;BMP180;7865;50.918;4.510;2023-02-08T10:31:12;103139.00;;;6.80
15607;BMP180;7865;50.918;4.510;2023-02-08T10:36:21;103136.00;;;6.90
15607;BMP180;7865;50.918;4.510;2023-02-08T10:41:34;103127.00;;;7.10
15607;BMP180;7865;50.918;4.510;2023-02-08T10:51:59;103136.00;;;7.50
15607;BMP180;7865;50.918;4.510;2023-02-08T10:57:13;103129.00;;;7.70
15607;BMP180;7865;50.918;4.510;2023-02-08T11:02:40;103132.00;;;8.00
15607;BMP180;7865;50.918;4.510;2023-02-08T11:07:42;103122.00;;;8.10
15607;BMP180;7865;50.918;4.510;2023-02-08T11:13:13;103129.00;;;8.20
15607;BMP180;7865;50.918;4.510;2023-02-08T11:18:31;103119.00;;;8.60
15607;BMP180;7865;50.918;4.510;2023-02-08T11:23:40;103116.00;;;8.60
15607;BMP180;7865;50.918;4.510;2023-02-08T11:28:43;103108.00;;;8.80
15607;BMP180;7865;50.918;4.510;2023-02-08T11:34:14;103112.00;;;9.20
15607;BMP180;7865;50.918;4.510;2023-02-08T11:39:28;103102.00;;;9.20
15607;BMP180;7865;50.918;4.510;2023-02-08T11:44:35;103083.00;;;9.20
15607;BMP180;7865;50.918;4.510;2023-02-08T11:49:42;103078.00;;;9.40
15607;BMP180;7865;50.918;4.510;2023-02-08T11:54:45;103071.00;;;9.60
15607;BMP180;7865;50.918;4.510;2023-02-08T11:59:49;103071.00;;;9.80
15607;BMP180;7865;50.918;4.510;2023-02-08T12:04:51;103067.00;;;9.90
15607;BMP180;7865;50.918;4.510;2023-02-08T12:20:30;103045.00;;;10.00
15607;BMP180;7865;50.918;4.510;2023-02-08T12:25:38;103043.00;;;10.20
15607;BMP180;7865;50.918;4.510;2023-02-08T12:30:58;103024.00;;;10.30
15607;BMP180;7865;50.918;4.510;2023-02-08T12:36:19;103028.00;;;10.50
15607;BMP180;7865;50.918;4.510;2023-02-08T12:41:36;103023.00;;;10.50
15607;BMP180;7865;50.918;4.510;2023-02-08T12:56:55;102988.00;;;10.80
15607;BMP180;7865;50.918;4.510;2023-02-08T13:02:22;102978.00;;;10.80
15607;BMP180;7865;50.918;4.510;2023-02-08T13:07:33;102972.00;;;10.90
15607;BMP180;7865;50.918;4.510;2023-02-08T13:12:48;102971.00;;;10.90
15607;BMP180;7865;50.918;4.510;2023-02-08T13:17:56;102952.00;;;11.00
15607;BMP180;7865;50.918;4.510;2023-02-08T13:23:06;102945.00;;;11.00
15607;BMP180;7865;50.918;4.510;2023-02-08T13:28:18;102926.00;;;11.10
15607;BMP180;7865;50.918;4.510;2023-02-08T13:39:05;102913.00;;;11.00
15607;BMP180;7865;50.918;4.510;2023-02-08T13:44:18;102915.00;;;10.80
15607;BMP180;7865;50.918;4.510;2023-02-08T14:00:35;102875.00;;;10.30
15607;BMP180;7865;50.918;4.510;2023-02-08T14:16:26;102876.00;;;10.30
15607;BMP180;7865;50.918;4.510;2023-02-08T14:21:59;102886.00;;;10.70
15607;BMP180;7865;50.918;4.510;2023-02-08T14:32:24;102833.00;;;13.60
15607;BMP180;7865;50.918;4.510;2023-02-08T14:37:30;102836.00;;;14.20
15607;BMP180;7865;50.918;4.510;2023-02-08T14:48:20;102848.00;;;11.80
15607;BMP180;7865;50.918;4.510;2023-02-08T14:58:44;102832.00;;;12.30
15607;BMP180;7865;50.918;4.510;2023-02-08T15:03:49;102796.00;;;13.40
15607;BMP180;7865;50.918;4.510;2023-02-08T15:08:52;102800.00;;;13.00
15607;BMP180;7865;50.918;4.510;2023-02-08T15:13:57;102864.00;;;10.30
15607;BMP180;7865;50.918;4.510;2023-02-08T15:19:03;102857.00;;;8.70
15607;BMP180;7865;50.918;4.510;2023-02-08T15:24:23;102795.00;;;11.00
15607;BMP180;7865;50.918;4.510;2023-02-08T15:29:29;102815.00;;;11.60
15607;BMP180;7865;50.918;4.510;2023-02-08T15:34:49;102806.00;;;11.60
15607;BMP180;7865;50.918;4.510;2023-02-08T15:39:55;102781.00;;;11.80
15607;BMP180;7865;50.918;4.510;2023-02-08T15:44:57;102830.00;;;9.30
15607;BMP180;7865;50.918;4.510;2023-02-08T15:50:04;102803.00;;;9.10
15607;BMP180;7865;50.918;4.510;2023-02-08T15:55:07;102813.00;;;7.60
15607;BMP180;7865;50.918;4.510;2023-02-08T16:00:16;102807.00;;;6.90
15607;BMP180;7865;50.918;4.510;2023-02-08T16:05:27;102784.00;;;6.40
15607;BMP180;7865;50.918;4.510;2023-02-08T16:15:44;102786.00;;;5.80
15607;BMP180;7865;50.918;4.510;2023-02-08T16:20:55;102770.00;;;5.60
15607;BMP180;7865;50.918;4.510;2023-02-08T16:31:24;102761.00;;;5.10
15607;BMP180;7865;50.918;4.510;2023-02-08T16:36:39;102759.00;;;4.90
15607;BMP180;7865;50.918;4.510;2023-02-08T16:52:47;102750.00;;;4.00
15607;BMP180;7865;50.918;4.510;2023-02-08T16:57:52;102746.00;;;3.60
15607;BMP180;7865;50.918;4.510;2023-02-08T17:02:55;102751.00;;;3.40
15607;BMP180;7865;50.918;4.510;2023-02-08T17:07:58;102752.00;;;3.40
15607;BMP180;7865;50.918;4.510;2023-02-08T17:13:01;102748.00;;;3.20
15607;BMP180;7865;50.918;4.510;2023-02-08T17:18:20;102755.00;;;3.00
15607;BMP180;7865;50.918;4.510;2023-02-08T17:23:22;102749.00;;;2.80
15607;BMP180;7865;50.918;4.510;2023-02-08T17:28:24;102740.00;;;2.50
15607;BMP180;7865;50.918;4.510;2023-02-08T17:33:27;102743.00;;;2.30
15607;BMP180;7865;50.918;4.510;2023-02-08T17:38:30;102732.00;;;2.00
15607;BMP180;7865;50.918;4.510;2023-02-08T17:43:32;102717.00;;;1.90
15607;BMP180;7865;50.918;4.510;2023-02-08T17:48:34;102723.00;;;1.70
15607;BMP180;7865;50.918;4.510;2023-02-08T17:53:36;102716.00;;;1.60
15607;BMP180;7865;50.918;4.510;2023-02-08T17:58:43;102710.00;;;1.60
15607;BMP180;7865;50.918;4.510;2023-02-08T18:03:47;102705.00;;;1.50
15607;BMP180;7865;50.918;4.510;2023-02-08T18:08:53;102689.00;;;1.50
15607;BMP180;7865;50.918;4.510;2023-02-08T18:13:55;102693.00;;;1.50
15607;BMP180;7865;50.918;4.510;2023-02-08T18:18:57;102697.00;;;1.50
15607;BMP180;7865;50.918;4.510;2023-02-08T18:24:03;102693.00;;;1.60
15607;BMP180;7865;50.918;4.510;2023-02-08T18:29:05;102684.00;;;1.60
15607;BMP180;7865;50.918;4.510;2023-02-08T18:34:08;102686.00;;;1.50
15607;BMP180;7865;50.918;4.510;2023-02-08T18:39:11;102681.00;;;1.60
15607;BMP180;7865;50.918;4.510;2023-02-08T18:44:15;102687.00;;;1.50
15607;BMP180;7865;50.918;4.510;2023-02-08T18:49:17;102678.00;;;1.40
15607;BMP180;7865;50.918;4.510;2023-02-08T18:54:19;102677.00;;;1.40
15607;BMP180;7865;50.918;4.510;2023-02-08T18:59:22;102676.00;;;1.40
15607;BMP180;7865;50.918;4.510;2023-02-08T19:04:24;102670.00;;;1.40
15607;BMP180;7865;50.918;4.510;2023-02-08T19:09:26;102682.00;;;1.40
15607;BMP180;7865;50.918;4.510;2023-02-08T19:14:27;102689.00;;;1.40
15607;BMP180;7865;50.918;4.510;2023-02-08T19:19:29;102686.00;;;1.40
15607;BMP180;7865;50.918;4.510;2023-02-08T19:24:31;102694.00;;;1.10
15607;BMP180;7865;50.918;4.510;2023-02-08T19:29:33;102690.00;;;0.80
15607;BMP180;7865;50.918;4.510;2023-02-08T19:34:35;102698.00;;;0.50
15607;BMP180;7865;50.918;4.510;2023-02-08T19:39:37;102697.00;;;0.30
15607;BMP180;7865;50.918;4.510;2023-02-08T19:44:40;102692.00;;;0.10
15607;BMP180;7865;50.918;4.510;2023-02-08T19:49:42;102685.00;;;-0.10
15607;BMP180;7865;50.918;4.510;2023-02-08T19:54:44;102695.00;;;-0.30
15607;BMP180;7865;50.918;4.510;2023-02-08T19:59:46;102687.00;;;-0.40
15607;BMP180;7865;50.918;4.510;2023-02-08T20:04:48;102685.00;;;-0.50
15607;BMP180;7865;50.918;4.510;2023-02-08T20:09:50;102695.00;;;-0.70
15607;BMP180;7865;50.918;4.510;2023-02-08T20:14:52;102689.00;;;-0.80
15607;BMP180;7865;50.918;4.510;2023-02-08T20:19:54;102683.00;;;-0.90
15607;BMP180;7865;50.918;4.510;2023-02-08T20:24:56;102677.00;;;-1.00
15607;BMP180;7865;50.918;4.510;2023-02-08T20:29:58;102672.00;;;-1.10
15607;BMP180;7865;50.918;4.510;2023-02-08T20:35:00;102676.00;;;-1.10
15607;BMP180;7865;50.918;4.510;2023-02-08T20:40:02;102680.00;;;-1.10
15607;BMP180;7865;50.918;4.510;2023-02-08T20:45:06;102670.00;;;-1.10
15607;BMP180;7865;50.918;4.510;2023-02-08T20:50:09;102675.00;;;-1.00
15607;BMP180;7865;50.918;4.510;2023-02-08T20:55:19;102663.00;;;-1.00
15607;BMP180;7865;50.918;4.510;2023-02-08T21:00:21;102664.00;;;-1.00
15607;BMP180;7865;50.918;4.510;2023-02-08T21:05:31;102672.00;;;-0.90
15607;BMP180;7865;50.918;4.510;2023-02-08T21:10:37;102672.00;;;-1.00
15607;BMP180;7865;50.918;4.510;2023-02-08T21:15:43;102667.00;;;-1.10
15607;BMP180;7865;50.918;4.510;2023-02-08T21:20:45;102677.00;;;-1.20
15607;BMP180;7865;50.918;4.510;2023-02-08T21:25:48;102677.00;;;-1.50
15607;BMP180;7865;50.918;4.510;2023-02-08T21:30:58;102671.00;;;-1.60
15607;BMP180;7865;50.918;4.510;2023-02-08T21:36:02;102661.00;;;-1.80
15607;BMP180;7865;50.918;4.510;2023-02-08T21:41:06;102661.00;;;-1.70
15607;BMP180;7865;50.918;4.510;2023-02-08T21:46:09;102658.00;;;-1.50
15607;BMP180;7865;50.918;4.510;2023-02-08T21:51:11;102647.00;;;-1.30
15607;BMP180;7865;50.918;4.510;2023-02-08T21:56:31;102643.00;;;-1.10
15607;BMP180;7865;50.918;4.510;2023-02-08T22:01:36;102648.00;;;-1.20
15607;BMP180;7865;50.918;4.510;2023-02-08T22:06:38;102640.00;;;-1.30
15607;BMP180;7865;50.918;4.510;2023-02-08T22:11:40;102630.00;;;-1.20
15607;BMP180;7865;50.918;4.510;2023-02-08T22:17:17;102627.00;;;-1.00
15607;BMP180;7865;50.918;4.510;2023-02-08T22:22:19;102622.00;;;-0.80
15607;BMP180;7865;50.918;4.510;2023-02-08T22:27:21;102630.00;;;-0.70
15607;BMP180;7865;50.918;4.510;2023-02-08T22:32:23;102625.00;;;-0.70
15607;BMP180;7865;50.918;4.510;2023-02-08T22:37:24;102614.00;;;-0.70
15607;BMP180;7865;50.918;4.510;2023-02-08T22:42:26;102622.00;;;-0.60
15607;BMP180;7865;50.918;4.510;2023-02-08T22:47:29;102623.00;;;-0.70
15607;BMP180;7865;50.918;4.510;2023-02-08T22:52:31;102627.00;;;-0.90
15607;BMP180;7865;50.918;4.510;2023-02-08T22:57:35;102624.00;;;-1.00
15607;BMP180;7865;50.918;4.510;2023-02-08T23:02:37;102627.00;;;-1.20
15607;BMP180;7865;50.918;4.510;2023-02-08T23:07:39;102619.00;;;-1.30
15607;BMP180;7865;50.918;4.510;2023-02-08T23:12:41;102623.00;;;-1.50
15607;BMP180;7865;50.918;4.510;2023-02-08T23:17:43;102621.00;;;-1.70
15607;BMP180;7865;50.918;4.510;2023-02-08T23:22:45;102609.00;;;-1.50
15607;BMP180;7865;50.918;4.510;2023-02-08T23:27:47;102602.00;;;-1.10
15607;BMP180;7865;50.918;4.510;2023-02-08T23:32:49;102605.00;;;-0.80
15607;BMP180;7865;50.918;4.510;2023-02-08T23:37:51;102602.00;;;-0.70
15607;BMP180;7865;50.918;4.510;2023-02-08T23:42:53;102618.00;;;-0.50
15607;BMP180;7865;50.918;4.510;2023-02-08T23:47:55;102609.00;;;-0.60
15607;BMP180;7865;50.918;4.510;2023-02-08T23:52:57;102611.00;;;-0.80
15607;BMP180;7865;50.918;4.510;2023-02-08T23:57:59;102611.00;;;-0.80
